Time;durP1;ratioP1;P1;durP2;ratioP2;P2;SDS_P1;SDS_P2;PMS_P1;PMS_P2;Temp;Humidity;BMP_temperature;BMP_pressure;BME280_temperature;BME280_humidity;BME280_pressure;Samples;Min_cycle;Max_cycle;Signal;HPM_P1;HPM_P2
2022/01/13 00:03:37;;;;;;;46.43;16.80;;;-5.20;99.90;;;-7.66;85.52;102111.66;10386242;27;97160;-77
2022/01/13 00:08:40;;;;;;;49.20;16.37;;;-5.20;99.90;;;-7.55;86.28;102114.19;10372111;28;96648;-77
2022/01/13 00:13:48;;;;;;;44.00;16.93;;;-5.10;99.90;;;-7.39;85.69;102113.25;10371522;27;97205;-77
2022/01/13 00:19:04;;;;;;;39.80;14.90;;;-5.00;99.90;;;-7.24;86.00;102106.31;10380365;28;96651;-77
2022/01/13 00:24:11;;;;;;;38.13;13.40;;;-4.90;99.90;;;-7.09;85.68;102099.31;10366409;28;97670;-76
2022/01/13 00:29:20;;;;;;;49.07;15.40;;;-4.80;99.90;;;-6.92;86.20;102100.94;10360583;28;98515;-77
2022/01/13 00:34:23;;;;;;;62.23;19.43;;;-4.60;99.90;;;-6.79;85.94;102108.56;10349851;28;96634;-77
2022/01/13 00:39:26;;;;;;;50.13;16.37;;;-4.50;99.90;;;-6.74;85.33;102108.56;10383027;28;96669;-77
2022/01/13 00:44:35;;;;;;;47.50;14.33;;;-4.40;99.90;;;-6.75;85.12;102115.44;10360830;28;96536;-76
2022/01/13 00:49:38;;;;;;;45.47;15.10;;;-4.40;99.90;;;-6.80;84.87;102135.31;10349237;28;96657;-76
2022/01/13 00:54:41;;;;;;;39.30;13.77;;;-4.40;99.90;;;-6.83;84.99;102131.91;10369760;28;98299;-76
2022/01/13 00:59:44;;;;;;;37.60;12.47;;;-4.50;99.90;;;-6.88;84.94;102124.16;10361533;28;96863;-76
2022/01/13 01:04:47;;;;;;;48.23;16.30;;;-4.50;99.90;;;-6.89;85.10;102127.63;10366487;28;97381;-77
2022/01/13 01:09:51;;;;;;;42.70;14.73;;;-4.50;99.90;;;-6.96;85.02;102140.56;10364623;28;96504;-77
2022/01/13 01:14:57;;;;;;;47.07;13.03;;;-4.50;99.90;;;-7.07;84.82;102146.69;10358589;28;96900;-77
2022/01/13 01:20:06;;;;;;;37.13;11.87;;;-4.60;99.90;;;-7.19;84.52;102138.16;10351065;28;98453;-76
2022/01/13 01:30:25;;;;;;;39.27;12.00;;;-4.80;99.90;;;-7.48;84.46;102128.81;10383130;28;97944;-77
2022/01/13 01:35:28;;;;;;;37.47;13.47;;;-4.90;99.90;;;-7.64;84.39;102127.13;10361459;28;98437;-77
2022/01/13 01:40:31;;;;;;;34.17;12.03;;;-5.00;99.90;;;-7.79;84.66;102125.47;10371476;28;96809;-76
2022/01/13 01:45:43;;;;;;;33.70;11.90;;;-5.20;99.90;;;-7.92;84.30;102147.00;10373408;28;96956;-76
2022/01/13 01:50:54;;;;;;;36.73;12.33;;;-5.30;99.90;;;-8.06;85.17;102154.75;10349874;28;98401;-76
2022/01/13 01:55:58;;;;;;;31.20;12.07;;;-5.40;99.90;;;-8.16;84.58;102158.22;10351266;28;97200;-76
2022/01/13 02:01:01;;;;;;;42.73;12.07;;;-5.50;99.90;;;-8.26;84.70;102153.94;10371249;27;96553;-76
2022/01/13 02:06:05;;;;;;;38.47;14.53;;;-5.60;99.90;;;-8.38;84.93;102147.97;10358188;28;98286;-77
2022/01/13 02:11:08;;;;;;;41.87;14.53;;;-5.70;99.90;;;-8.44;85.19;102139.38;10359013;28;98122;-76
2022/01/13 02:16:36;;;;;;;35.23;12.27;;;-5.80;99.90;;;-8.51;85.80;102143.66;10381017;28;96557;-76
2022/01/13 02:21:34;;;;;;;34.47;10.90;;;-5.90;99.90;;;-8.57;85.22;102146.25;10381888;27;96722;-76
2022/01/13 02:26:37;;;;;;;37.53;12.83;;;-6.00;99.90;;;-8.61;85.46;102166.84;10374640;28;98404;-76
2022/01/13 02:31:41;;;;;;;39.90;11.07;;;-6.00;99.90;;;-8.64;86.08;102168.53;10367686;28;97048;-76
2022/01/13 02:36:45;;;;;;;33.37;11.07;;;-6.10;99.90;;;-8.62;86.64;102145.38;10370933;28;98389;-76
2022/01/13 02:41:48;;;;;;;41.33;13.57;;;-6.10;99.90;;;-8.59;86.47;102147.94;10374001;28;96739;-77
2022/01/13 02:47:21;;;;;;;46.27;13.40;;;-6.00;99.90;;;-8.53;86.35;102135.03;10366981;28;98471;-77
2022/01/13 02:52:41;;;;;;;63.20;19.67;;;-6.00;99.90;;;-8.44;86.61;102113.56;10348936;28;96701;-77
2022/01/13 02:57:44;;;;;;;54.63;17.30;;;-6.00;99.90;;;-8.35;87.18;102134.16;10350363;28;96603;-77
2022/01/13 03:02:48;;;;;;;38.30;13.50;;;-5.90;99.90;;;-8.27;87.41;102136.75;10354811;28;97860;-77
2022/01/13 03:07:52;;;;;;;44.03;14.77;;;-5.80;99.90;;;-8.16;87.22;102148.75;10342693;28;96586;-77
2022/01/13 03:12:57;;;;;;;48.13;16.30;;;-5.80;99.90;;;-8.03;87.62;102165.09;10341117;28;97143;-77
2022/01/13 03:18:00;;;;;;;39.87;14.27;;;-5.70;99.90;;;-7.90;87.90;102165.94;10355426;28;96563;-77
2022/01/13 03:23:05;;;;;;;46.33;15.23;;;-5.60;99.90;;;-7.76;87.54;102177.06;10356858;28;97602;-77
2022/01/13 03:28:14;;;;;;;41.60;13.03;;;-5.50;99.90;;;-7.67;87.67;102176.22;10372608;28;96628;-77
2022/01/13 03:33:17;;;;;;;40.20;13.37;;;-5.40;99.90;;;-7.60;87.57;102168.44;10376506;27;96721;-76
2022/01/13 03:38:20;;;;;;;37.63;13.00;;;-5.30;99.90;;;-7.50;86.95;102164.06;10376734;28;96553;-77
2022/01/13 03:43:23;;;;;;;36.57;13.57;;;-5.20;99.90;;;-7.47;86.78;102142.56;10395844;28;96852;-77
2022/01/13 03:48:28;;;;;;;42.63;12.87;;;-5.10;99.90;;;-7.50;87.47;102140.84;10341511;28;96686;-78
2022/01/13 03:53:31;;;;;;;37.97;13.37;;;-5.10;99.90;;;-7.57;86.88;102152.06;10343580;28;96620;-78
2022/01/13 03:59:25;;;;;;;31.93;10.77;;;-5.10;99.90;;;-7.68;86.73;102143.50;10398635;27;97077;-77
2022/01/13 04:04:32;;;;;;;38.13;11.17;;;-5.20;99.90;;;-7.77;87.06;102153.84;10404066;27;99137;-78
2022/01/13 04:09:35;;;;;;;30.90;11.20;;;-5.30;99.90;;;-7.87;86.94;102142.69;10396908;27;96582;-78
2022/01/13 04:19:46;;;;;;;70.50;19.10;;;-5.50;99.90;;;-8.03;86.67;102095.44;10370917;27;96661;-77
2022/01/13 04:24:51;;;;;;;44.10;16.53;;;-5.50;99.90;;;-8.09;86.87;102100.59;10369795;28;96939;-78
2022/01/13 04:35:16;;;;;;;;;;;-5.60;99.90;;;-8.22;87.48;102091.16;10396800;27;97969;-77
2022/01/13 04:40:19;;;;;;;36.63;12.53;;;-5.70;99.90;;;-8.33;87.02;102096.34;10344868;28;97052;-77
2022/01/13 04:45:24;;;;;;;36.83;12.40;;;-5.80;99.90;;;-8.38;87.63;102093.81;10374107;28;98359;-77
2022/01/13 04:50:28;;;;;;;38.53;13.07;;;-5.80;99.90;;;-8.35;87.42;102113.53;10350524;28;97080;-77
2022/01/13 04:55:34;;;;;;;76.17;23.77;;;-5.80;99.90;;;-8.30;87.24;102106.66;10367401;28;96577;-77
2022/01/13 05:00:37;;;;;;;60.37;17.37;;;-5.80;99.90;;;-8.17;87.84;102120.38;10371746;28;98431;-77
2022/01/13 05:05:40;;;;;;;57.57;19.57;;;-5.70;99.90;;;-8.03;87.88;102121.22;10357350;28;97462;-77
2022/01/13 05:10:42;;;;;;;66.90;19.67;;;-5.60;99.90;;;-7.89;88.00;102139.25;10360562;28;97075;-77
2022/01/13 05:15:46;;;;;;;58.43;18.03;;;-5.50;99.90;;;-7.75;87.74;102152.13;10369089;28;99711;-78
2022/01/13 05:20:50;;;;;;;42.83;14.97;;;-5.40;99.90;;;-7.60;87.83;102154.66;10354035;28;96536;-77
2022/01/13 05:25:53;;;;;;;45.00;17.37;;;-5.30;99.90;;;-7.43;87.89;102160.63;10360524;28;96977;-76
2022/01/13 05:30:56;;;;;;;63.43;23.07;;;-5.20;99.90;;;-7.29;87.86;102164.00;10367908;28;96770;-77
2022/01/13 05:36:00;;;;;;;64.03;22.20;;;-5.00;99.90;;;-7.13;87.64;102164.81;10351586;28;98376;-76
2022/01/13 05:41:03;;;;;;;50.67;18.73;;;-4.90;99.90;;;-7.02;87.52;102154.38;10376952;28;98376;-75
2022/01/13 05:46:06;;;;;;;49.37;18.20;;;-4.80;99.90;;;-6.97;87.23;102147.47;10361832;28;98503;-76
2022/01/13 05:51:09;;;;;;;49.27;17.20;;;-4.70;99.90;;;-6.93;86.70;102136.25;10349809;28;96659;-78
2022/01/13 05:56:12;;;;;;;62.23;19.80;;;-4.70;99.90;;;-6.93;86.70;102156.94;10360947;28;98913;-76
2022/01/13 06:01:15;;;;;;;43.90;15.93;;;-4.60;99.90;;;-6.97;86.68;102142.31;10366001;28;98131;-76
2022/01/13 06:06:18;;;;;;;45.03;16.63;;;-4.60;99.90;;;-7.03;86.40;102134.59;10378982;28;96860;-80
2022/01/13 06:11:23;;;;;;;35.87;15.70;;;-4.70;99.90;;;-7.15;86.28;102139.81;10364723;28;96711;-79
2022/01/13 06:16:25;;;;;;;50.00;20.17;;;-4.70;99.90;;;-7.30;85.85;102131.31;10356598;28;96705;-79
2022/01/13 06:21:28;;;;;;;49.87;18.47;;;-4.80;99.90;;;-7.47;85.58;102124.50;10342796;28;96589;-78
2022/01/13 06:26:31;;;;;;;42.83;16.40;;;-4.90;99.90;;;-7.64;86.16;102129.72;10358907;28;96626;-78
2022/01/13 06:31:34;;;;;;;47.30;16.13;;;-5.10;99.90;;;-7.77;85.90;102143.53;10349045;28;97957;-78
2022/01/13 06:36:38;;;;;;;53.70;18.97;;;-5.20;99.90;;;-7.88;86.16;102141.81;10378187;27;98104;-77
2022/01/13 06:41:41;;;;;;;52.93;16.03;;;-5.30;99.90;;;-7.95;86.20;102145.28;10365615;28;96785;-77
2022/01/13 06:46:44;;;;;;;47.70;18.03;;;-5.40;99.90;;;-8.01;86.53;102141.88;10337169;28;96794;-78
2022/01/13 06:51:47;;;;;;;48.00;17.17;;;-5.50;99.90;;;-8.05;86.66;102141.00;10343225;28;96776;-77
2022/01/13 06:56:52;;;;;;;56.00;21.30;;;-5.60;99.90;;;-7.98;86.94;102149.59;10340882;28;97309;-77
2022/01/13 07:01:59;;;;;;;62.07;21.20;;;-5.60;99.90;;;-7.77;87.56;102144.38;10390463;27;96641;-77
2022/01/13 07:07:03;;;;;;;56.23;18.93;;;-5.50;99.90;;;-7.62;87.90;102151.22;10350928;28;98014;-78
2022/01/13 07:12:08;;;;;;;51.53;18.43;;;-5.50;99.90;;;-7.46;87.82;102139.13;10378304;28;96655;-78
2022/01/13 07:17:11;;;;;;;62.50;21.83;;;-5.40;99.90;;;-7.19;87.49;102153.66;10360556;28;96583;-78
2022/01/13 07:22:18;;;;;;;68.70;25.03;;;-5.20;99.90;;;-6.80;87.24;102139.63;10391663;27;97137;-78
2022/01/13 07:27:21;;;;;;;60.00;22.13;;;-5.00;99.90;;;-6.39;87.35;102144.47;10353609;28;96665;-78
2022/01/13 07:32:24;;;;;;;58.63;22.10;;;-4.70;99.90;;;-5.91;87.12;102155.25;10354542;28;97706;-77
2022/01/13 07:37:27;;;;;;;100.33;31.43;;;-4.40;99.90;;;-5.57;86.76;102162.66;10364780;28;96539;-78
2022/01/13 07:42:30;;;;;;;94.53;34.50;;;-4.10;99.90;;;-5.27;86.06;102172.66;10373078;28;96981;-78
2022/01/13 07:47:33;;;;;;;64.93;26.17;;;-3.80;99.90;;;-5.00;84.75;102166.22;10384695;28;98044;-78
2022/01/13 07:52:36;;;;;;;62.47;24.60;;;-3.60;99.90;;;-4.64;84.24;102175.22;10371318;28;97095;-78
2022/01/13 07:57:39;;;;;;;77.47;27.63;;;-3.30;99.90;;;-4.26;83.53;102162.53;10365890;28;96661;-78
2022/01/13 08:02:42;;;;;;;50.47;20.50;;;-3.00;99.90;;;-3.90;82.71;102151.53;10380403;27;98183;-78
2022/01/13 08:07:46;;;;;;;49.30;21.27;;;-2.70;99.90;;;-3.62;81.37;102151.00;10382600;27;98072;-78
2022/01/13 08:12:49;;;;;;;75.70;33.43;;;-2.40;99.90;;;-3.25;80.81;102157.16;10362329;28;96660;-78
2022/01/13 08:23:13;;;;;;;77.20;31.42;;;-1.90;99.90;;;-2.48;76.98;102158.91;10357343;28;96563;-78
2022/01/13 08:28:16;;;;;;;81.10;34.90;;;-1.40;99.90;;;-2.12;75.80;102158.03;10406965;27;96684;-78
2022/01/13 08:33:22;;;;;;;70.53;31.17;;;-1.10;99.90;;;-1.71;74.28;102147.38;10378704;28;96814;-78
2022/01/13 08:38:26;;;;;;;75.93;33.93;;;-0.70;99.90;;;-1.16;73.26;102132.75;10394638;27;96685;-79
2022/01/13 08:43:29;;;;;;;77.07;33.87;;;-0.20;99.90;;;-0.58;71.30;102137.94;10359393;28;97404;-78
2022/01/13 08:48:34;;;;;;;76.83;32.90;;;0.30;99.90;;;-0.38;68.46;102134.69;10359138;28;96813;-77
2022/01/13 08:53:38;;;;;;;83.30;38.77;;;0.70;99.90;;;-0.24;68.74;102127.25;10371689;27;98279;-77
2022/01/13 08:58:43;;;;;;;96.10;40.90;;;1.00;99.90;;;0.00;68.56;102133.41;10389512;28;98372;-77
2022/01/13 09:03:46;;;;;;;69.10;30.30;;;1.30;99.90;;;0.12;66.96;102130.38;10346418;28;96723;-77
2022/01/13 09:08:49;;;;;;;60.20;28.23;;;1.50;99.90;;;0.12;66.72;102146.06;10382655;27;96596;-77
2022/01/13 09:13:57;;;;;;;56.70;26.77;;;1.60;99.90;;;-0.25;66.79;102129.91;10356668;27;100505;-77
2022/01/13 09:19:08;;;;;;;59.87;28.27;;;1.50;99.90;;;-0.66;67.93;102135.59;10280688;28;96601;-77
2022/01/13 09:24:16;;;;;;;40.97;20.05;;;1.30;99.90;;;-0.43;69.14;102134.81;10291814;28;96616;-77
2022/01/13 09:29:18;;;;;;;54.40;26.47;;;1.40;99.90;;;0.37;68.79;102126.88;10284851;28;96687;-77
2022/01/13 09:34:21;;;;;;;65.90;30.63;;;1.80;99.90;;;1.27;67.59;102129.53;10309779;28;96754;-76
2022/01/13 09:39:24;;;;;;;63.90;31.70;;;2.50;99.90;;;2.08;65.29;102104.31;10286305;28;98176;-76
2022/01/13 09:44:29;;;;;;;58.30;28.97;;;3.10;99.90;;;2.79;63.44;102102.84;10267799;28;97285;-77
2022/01/13 09:49:32;;;;;;;48.03;26.13;;;3.90;99.90;;;3.46;62.68;102078.59;10298919;28;98392;-78
2022/01/13 09:54:35;;;;;;;29.13;14.93;;;4.60;99.90;;;3.61;63.42;102078.78;10295908;28;98564;-77
2022/01/13 09:59:38;;;;;;;32.67;14.80;;;4.90;99.90;;;3.58;63.11;102065.75;10270800;28;97332;-78
2022/01/13 10:04:53;;;;;;;32.80;16.37;;;4.90;98.00;;;2.92;64.68;102080.34;10282441;28;96701;-77
2022/01/13 10:10:00;;;;;;;38.03;16.23;;;4.60;97.30;;;2.35;66.59;102073.41;10331472;28;96595;-77
2022/01/13 10:20:35;;;;;;;35.25;16.73;;;3.90;99.20;;;1.66;69.58;102055.44;10369946;28;96765;-77
2022/01/13 10:25:43;;;;;;;37.13;18.00;;;3.60;99.50;;;1.39;70.71;102077.56;10373055;28;96562;-77
2022/01/13 10:30:51;;;;;;;37.27;17.37;;;3.30;99.90;;;1.24;71.81;102069.41;10381340;28;98371;-76
2022/01/13 10:36:11;;;;;;;40.10;17.13;;;3.10;99.90;;;1.06;72.36;102067.53;10383935;27;96530;-77
2022/01/13 10:41:50;;;;;;;45.40;21.83;;;3.00;99.90;;;0.97;73.46;102054.81;10383828;28;96653;-77
2022/01/13 10:47:05;;;;;;;40.17;18.40;;;2.90;99.90;;;0.99;74.05;102050.38;10363626;27;98413;-77
2022/01/13 10:52:26;;;;;;;38.93;17.23;;;2.80;99.90;;;1.05;73.79;102044.88;10388885;28;97947;-77
2022/01/13 10:57:30;;;;;;;35.65;17.48;;;2.90;99.90;;;1.42;73.67;102030.28;10365962;28;96586;-77
2022/01/13 11:02:33;;;;;;;32.13;14.97;;;3.10;99.90;;;2.19;71.52;102030.41;10382177;27;96640;-77
2022/01/13 11:07:40;;;;;;;35.07;16.43;;;3.60;99.90;;;2.40;70.38;102024.19;10347707;28;96699;-77
2022/01/13 11:12:45;;;;;;;32.83;14.80;;;4.00;99.90;;;2.58;69.60;102027.72;10380065;27;98538;-77
2022/01/13 11:17:49;;;;;;;31.07;14.53;;;4.20;99.90;;;2.68;68.47;102016.72;10340158;28;98818;-75
2022/01/13 11:22:56;;;;;;;28.77;14.27;;;4.30;99.90;;;2.26;69.45;102001.19;10379010;27;98103;-75
2022/01/13 11:27:59;;;;;;;29.07;13.10;;;4.00;99.90;;;2.04;70.53;101997.84;10365480;28;97466;-78
2022/01/13 11:33:07;;;;;;;27.97;11.53;;;3.80;99.90;;;1.83;71.22;101990.03;10347644;28;96619;-78
2022/01/13 11:38:12;;;;;;;24.23;11.63;;;3.70;99.90;;;1.77;72.04;102002.56;10364148;28;96546;-77
2022/01/13 11:43:39;;;;;;;25.00;11.70;;;3.60;99.90;;;1.78;72.09;102012.13;10360784;27;97519;-77
2022/01/13 11:49:17;;;;;;;22.03;10.67;;;3.60;99.90;;;1.81;72.14;102005.00;10344045;28;98465;-77
2022/01/13 11:54:33;;;;;;;28.10;11.97;;;3.60;99.90;;;1.77;72.71;102003.41;10359318;28;98444;-77
2022/01/13 11:59:56;;;;;;;21.40;10.70;;;3.60;99.90;;;1.72;72.78;102009.78;10390855;27;96764;-77
2022/01/13 12:05:19;;;;;;;22.07;10.87;;;3.60;99.90;;;1.70;72.91;102007.22;10372332;28;98302;-77
2022/01/13 12:10:35;;;;;;;21.67;9.53;;;3.50;99.90;;;1.64;72.87;102011.88;10375680;28;98112;-78
2022/01/13 12:15:44;;;;;;;25.20;10.87;;;3.50;99.90;;;1.52;72.79;102000.16;10360152;28;97830;-77
2022/01/13 12:21:09;;;;;;;24.77;10.37;;;3.40;99.90;;;1.46;73.34;101989.94;10358514;28;97092;-77
2022/01/13 12:26:30;;;;;;;22.80;10.37;;;3.30;99.90;;;1.40;73.34;101966.63;10368076;28;96592;-77
2022/01/13 12:31:33;;;;;;;23.95;10.38;;;3.20;99.90;;;1.40;73.65;101961.38;10357401;28;97434;-77
2022/01/13 12:36:42;;;;;;;25.10;10.73;;;3.20;99.90;;;1.45;73.59;101951.56;10354412;28;96673;-76
2022/01/13 12:42:02;;;;;;;24.30;11.13;;;3.30;99.90;;;1.59;73.91;101957.03;10353182;28;96710;-77
2022/01/13 12:47:05;;;;;;;20.00;9.83;;;3.30;99.90;;;1.77;73.57;101974.56;10361604;28;96602;-77
2022/01/13 12:52:27;;;;;;;22.37;10.57;;;3.50;99.90;;;2.09;72.45;101982.75;10357378;28;97283;-77
2022/01/13 12:57:30;;;;;;;18.63;9.07;;;3.80;99.90;;;2.19;71.07;101970.09;10388001;27;96956;-77
2022/01/13 13:02:33;;;;;;;26.43;12.63;;;3.90;99.90;;;2.19;70.32;101970.94;10397988;27;96665;-77
2022/01/13 13:07:42;;;;;;;31.17;13.87;;;4.00;99.90;;;2.11;70.65;101952.09;10370537;28;98338;-77
2022/01/13 13:12:54;;;;;;;31.40;14.53;;;3.90;99.90;;;1.93;71.20;101931.97;10377764;28;96631;-76
2022/01/13 13:17:56;;;;;;;27.43;12.63;;;3.80;99.90;;;1.85;71.69;101932.28;10386555;27;96887;-77
2022/01/13 13:23:06;;;;;;;29.33;15.40;;;3.70;99.90;;;1.86;72.08;101929.63;10374668;28;96597;-77
2022/01/13 13:28:26;;;;;;;29.53;13.77;;;3.70;99.90;;;1.84;72.10;101944.53;10369379;28;96605;-77
2022/01/13 13:33:47;;;;;;;30.13;12.97;;;3.70;99.90;;;1.88;72.51;101945.28;10388488;27;96651;-77
2022/01/13 13:39:06;;;;;;;28.10;12.50;;;3.80;99.90;;;1.98;72.39;101933.44;10370068;28;96591;-76
2022/01/13 13:44:13;;;;;;;26.07;12.70;;;3.80;99.90;;;2.00;72.07;101942.09;10387977;27;96807;-76
2022/01/13 13:49:24;;;;;;;27.07;13.13;;;3.90;99.90;;;1.94;72.52;101950.22;10363912;28;96525;-76
2022/01/13 13:54:28;;;;;;;25.30;12.10;;;3.90;99.90;;;1.86;72.50;101941.88;10402127;27;97104;-76
2022/01/13 13:59:37;;;;;;;22.17;11.80;;;3.80;99.90;;;1.76;73.00;101944.03;10363883;28;98489;-76
2022/01/13 14:04:43;;;;;;;26.47;12.27;;;3.70;99.90;;;1.63;73.59;101928.94;10340412;28;98419;-76
2022/01/13 14:10:12;;;;;;;27.43;13.40;;;3.60;99.90;;;1.50;74.06;101934.72;10356406;28;96732;-76
2022/01/13 14:15:38;;;;;;;28.70;12.20;;;3.50;99.90;;;1.43;74.62;101924.56;10372474;27;98347;-76
2022/01/13 14:20:50;;;;;;;25.80;12.70;;;3.40;99.90;;;1.37;74.72;101924.84;10372536;28;96692;-76
2022/01/13 14:26:08;;;;;;;31.80;14.73;;;3.30;99.90;;;1.32;74.75;101910.19;10365935;28;96593;-75
2022/01/13 14:31:12;;;;;;;26.43;12.07;;;3.30;99.90;;;1.33;75.63;101913.66;10386453;27;96731;-76
2022/01/13 14:36:25;;;;;;;52.20;23.37;;;3.30;99.90;;;1.40;75.45;101909.84;10385477;27;96663;-76
2022/01/13 14:41:34;;;;;;;45.67;23.37;;;3.30;99.90;;;1.47;75.54;101906.03;10384210;27;96907;-76
2022/01/13 14:46:51;;;;;;;31.10;14.33;;;3.40;99.90;;;1.52;75.01;101892.72;10375953;28;96938;-76
2022/01/13 14:51:55;;;;;;;27.40;13.67;;;3.40;99.90;;;1.50;75.60;101884.06;10394900;27;97241;-76
2022/01/13 14:56:58;;;;;;;53.80;25.87;;;3.40;99.90;;;1.42;75.63;101886.19;10379905;28;99075;-76
2022/01/13 15:02:02;;;;;;;33.53;16.60;;;3.40;99.90;;;1.33;75.52;101871.75;10388426;27;97049;-75
2022/01/13 15:07:05;;;;;;;25.40;12.50;;;3.30;99.90;;;1.28;76.58;101864.09;10370633;28;96848;-77
2022/01/13 15:12:08;;;;;;;22.63;12.07;;;3.30;99.90;;;1.23;76.88;101873.91;10362338;27;98336;-77
2022/01/13 15:17:12;;;;;;;43.77;18.50;;;3.20;99.90;;;1.21;76.87;101857.41;10371310;28;96572;-75
2022/01/13 15:22:15;;;;;;;35.00;14.40;;;3.10;99.90;;;1.20;77.08;101850.50;10357023;28;98062;-75
2022/01/13 15:27:18;;;;;;;33.83;15.37;;;3.10;99.90;;;1.22;77.53;101848.63;10397892;27;97649;-76
2022/01/13 15:32:26;;;;;;;171.03;55.40;;;3.10;99.90;;;1.24;77.36;101866.91;10378315;28;96613;-76
2022/01/13 15:37:30;;;;;;;88.13;29.17;;;3.20;99.90;;;1.26;77.85;101859.81;10383073;28;96633;-76
2022/01/13 15:42:38;;;;;;;52.77;20.93;;;3.20;99.90;;;1.28;77.63;101850.13;10372150;28;97472;-76
2022/01/13 15:47:44;;;;;;;75.77;32.17;;;3.20;99.90;;;1.29;77.65;101852.69;10381049;28;98485;-76
2022/01/13 15:52:47;;;;;;;44.07;20.63;;;3.20;99.90;;;1.26;77.75;101851.97;10385664;27;97916;-75
2022/01/13 15:57:50;;;;;;;30.80;14.00;;;3.20;99.90;;;1.20;78.08;101833.91;10381149;27;98843;-76
2022/01/13 16:02:53;;;;;;;54.83;22.03;;;3.10;99.90;;;1.16;78.27;101827.97;10364244;28;96720;-76
2022/01/13 16:07:56;;;;;;;32.57;15.00;;;3.10;99.90;;;1.07;78.16;101818.72;10385295;28;97117;-77
2022/01/13 16:13:00;;;;;;;43.93;17.53;;;3.10;99.90;;;1.06;78.69;101821.44;10385860;28;98501;-79
2022/01/13 16:18:03;;;;;;;29.03;13.10;;;3.00;99.90;;;1.07;79.25;101810.88;10372013;28;96647;-78
2022/01/13 16:23:06;;;;;;;32.70;13.73;;;3.00;99.90;;;1.13;79.21;101807.13;10372268;28;97790;-77
2022/01/13 16:28:09;;;;;;;25.43;11.80;;;3.00;99.90;;;1.15;78.84;101800.09;10362809;28;96877;-76
2022/01/13 16:33:12;;;;;;;24.80;11.20;;;3.00;99.90;;;1.18;79.05;101792.06;10345793;28;96612;-77
2022/01/13 16:38:16;;;;;;;23.57;11.27;;;3.00;99.90;;;1.18;79.19;101778.97;10371092;28;96809;-75
2022/01/13 16:43:19;;;;;;;27.50;12.80;;;3.00;99.90;;;1.18;79.45;101788.63;10358062;28;97037;-76
2022/01/13 16:48:23;;;;;;;27.00;11.70;;;3.00;99.90;;;1.23;79.68;101797.13;10369254;28;97630;-75
2022/01/13 16:53:26;;;;;;;24.47;12.07;;;3.00;99.90;;;1.26;79.20;101792.59;10363607;28;96743;-75
2022/01/13 16:58:29;;;;;;;25.27;11.70;;;3.10;99.90;;;1.31;79.45;101795.00;10376785;28;96630;-75
2022/01/13 17:03:32;;;;;;;21.83;11.10;;;3.20;99.90;;;1.39;78.47;101768.47;10362020;28;98399;-75
2022/01/13 17:08:35;;;;;;;26.60;12.43;;;3.20;99.90;;;1.42;78.18;101777.03;10371873;28;96598;-75
2022/01/13 17:13:39;;;;;;;26.27;10.87;;;3.20;99.90;;;1.44;78.23;101780.44;10359868;28;98354;-75
2022/01/13 17:18:42;;;;;;;23.17;10.90;;;3.30;99.90;;;1.45;78.25;101774.28;10376668;27;98157;-75
2022/01/13 17:23:45;;;;;;;25.43;12.57;;;3.30;99.90;;;1.44;77.18;101769.09;10362972;28;98639;-74
2022/01/13 17:28:48;;;;;;;29.70;12.10;;;3.30;99.90;;;1.40;76.54;101772.78;10360460;28;98522;-75
2022/01/13 17:33:51;;;;;;;25.10;13.03;;;3.20;99.90;;;1.42;76.30;101777.03;10358289;28;97006;-75
2022/01/13 17:38:55;;;;;;;22.83;11.43;;;3.20;99.90;;;1.46;76.46;101782.97;10349275;28;96617;-75
2022/01/13 17:43:59;;;;;;;28.03;12.93;;;3.30;99.90;;;1.51;75.79;101775.75;10364192;28;98644;-75
2022/01/13 17:49:03;;;;;;;29.97;13.63;;;3.30;99.90;;;1.59;76.36;101792.81;10354032;28;97960;-75
2022/01/13 17:54:06;;;;;;;26.50;13.00;;;3.40;99.90;;;1.66;76.22;101784.66;10350827;28;97961;-75
2022/01/13 17:59:08;;;;;;;21.57;9.67;;;3.50;99.90;;;1.82;76.45;101786.50;10349159;28;98676;-74
2022/01/13 18:04:11;;;;;;;20.37;9.53;;;3.60;99.90;;;1.95;75.57;101797.25;10352047;28;96947;-75
2022/01/13 18:09:15;;;;;;;21.83;10.70;;;3.70;99.90;;;2.05;75.12;101782.78;10353176;28;98517;-75
2022/01/13 18:14:18;;;;;;;23.57;10.50;;;3.80;99.90;;;2.11;74.55;101781.63;10348430;28;98272;-75
2022/01/13 18:19:23;;;;;;;23.60;10.23;;;3.90;99.90;;;2.14;74.18;101776.22;10364405;27;98049;-75
2022/01/13 18:24:27;;;;;;;40.57;17.20;;;3.90;99.90;;;2.18;74.47;101758.56;10374676;28;98130;-74
2022/01/13 18:29:30;;;;;;;21.37;9.90;;;4.00;99.90;;;2.25;74.25;101755.56;10356674;28;98190;-75
2022/01/13 18:34:34;;;;;;;32.63;14.47;;;4.00;99.90;;;2.38;75.47;101742.66;10344739;28;98594;-75
2022/01/13 18:39:38;;;;;;;15.83;7.70;;;4.10;99.90;;;2.49;75.63;101721.97;10333412;28;98457;-76
2022/01/13 18:44:44;;;;;;;19.13;9.13;;;4.30;99.90;;;2.61;75.77;101708.22;10391581;27;97266;-76
2022/01/13 18:49:51;;;;;;;14.37;6.73;;;4.30;99.90;;;2.70;75.86;101712.16;10365653;28;96645;-76
2022/01/13 18:54:54;;;;;;;15.93;7.40;;;4.40;99.90;;;2.77;75.38;101700.41;10374129;28;96674;-75
2022/01/13 18:59:56;;;;;;;15.03;7.70;;;4.50;99.90;;;2.83;75.10;101694.84;10376963;27;99223;-75
2022/01/13 19:04:59;;;;;;;15.63;7.27;;;4.60;99.90;;;2.84;75.40;101672.91;10355099;28;98506;-75
2022/01/13 19:10:04;;;;;;;11.97;6.73;;;4.60;99.90;;;2.82;75.40;101656.38;10344135;28;96789;-76
2022/01/13 19:15:07;;;;;;;15.20;7.63;;;4.60;99.90;;;2.82;75.76;101669.50;10342745;28;97297;-76
2022/01/13 19:20:13;;;;;;;14.77;7.20;;;4.60;99.90;;;2.78;75.15;101669.75;10383318;27;97930;-77
2022/01/13 19:25:17;;;;;;;16.40;7.40;;;4.60;99.90;;;2.75;74.67;101662.03;10350539;28;98746;-76
2022/01/13 19:30:24;;;;;;;14.53;6.37;;;4.50;99.90;;;2.73;74.55;101670.00;10384147;27;96737;-76
2022/01/13 19:35:30;;;;;;;15.20;7.33;;;4.50;99.90;;;2.71;75.01;101658.72;10357158;28;98245;-76
2022/01/13 19:40:34;;;;;;;14.50;6.87;;;4.50;99.90;;;2.72;75.44;101652.56;10366992;27;97994;-76
2022/01/13 19:45:38;;;;;;;17.33;7.60;;;4.50;99.90;;;2.75;76.10;101655.00;10360222;28;96659;-76
2022/01/13 19:50:42;;;;;;;17.30;7.27;;;4.50;99.90;;;2.76;75.09;101643.59;10360756;28;98034;-76
2022/01/13 19:55:50;;;;;;;17.03;8.03;;;4.60;99.90;;;2.72;74.62;101636.81;10347400;28;96730;-76
2022/01/13 20:00:53;;;;;;;18.20;8.73;;;4.50;99.90;;;2.65;72.80;101624.94;10379002;27;98052;-77
2022/01/13 20:06:01;;;;;;;22.10;10.07;;;4.50;99.90;;;2.39;70.98;101632.41;10378003;27;98667;-76
2022/01/13 20:11:04;;;;;;;19.00;9.47;;;4.30;99.90;;;2.17;68.72;101618.72;10394639;27;96681;-76
2022/01/13 20:16:07;;;;;;;27.93;13.30;;;4.10;99.90;;;1.98;68.70;101616.19;10365766;28;96725;-76
2022/01/13 20:21:10;;;;;;;19.53;9.67;;;3.90;99.90;;;1.88;69.36;101623.66;10357367;28;97011;-75
2022/01/13 20:26:12;;;;;;;20.50;9.90;;;3.70;99.90;;;1.78;70.15;101626.81;10390051;27;97582;-76
2022/01/13 20:31:15;;;;;;;21.60;10.07;;;3.70;99.90;;;1.76;71.51;101626.91;10375429;27;97804;-76
2022/01/13 20:36:19;;;;;;;19.07;9.10;;;3.60;99.90;;;1.83;72.67;101623.03;10357040;28;99102;-76
2022/01/13 20:41:24;;;;;;;17.57;8.33;;;3.70;99.90;;;2.00;74.59;101613.50;10357066;28;98452;-76
2022/01/13 20:46:28;;;;;;;18.00;8.20;;;3.80;99.90;;;2.16;74.25;101619.66;10355030;28;97429;-77
2022/01/13 20:51:32;;;;;;;17.50;8.10;;;3.90;99.90;;;2.21;74.73;101614.16;10353173;28;98469;-77
2022/01/13 20:56:36;;;;;;;16.97;8.73;;;4.00;99.90;;;2.32;75.47;101614.44;10369276;28;98202;-77
2022/01/13 21:01:39;;;;;;;20.37;8.87;;;4.00;99.90;;;2.44;75.84;101616.41;10352994;28;98473;-76
2022/01/13 21:06:42;;;;;;;18.97;9.43;;;4.10;99.90;;;2.53;75.88;101605.44;10390044;27;97379;-76
2022/01/13 21:11:45;;;;;;;16.83;8.57;;;4.20;99.90;;;2.59;75.82;101606.91;10388981;28;97443;-77
2022/01/13 21:16:49;;;;;;;15.67;8.20;;;4.30;99.90;;;2.61;76.67;101605.88;10405250;28;96585;-77
2022/01/13 21:21:52;;;;;;;18.97;8.50;;;4.40;99.90;;;2.67;76.38;101612.56;10378007;27;98475;-77